Time;durP1;ratioP1;P1;durP2;ratioP2;P2;SDS_P1;SDS_P2;PMS_P1;PMS_P2;Temp;Humidity;BMP_temperature;BMP_pressure;BME280_temperature;BME280_humidity;BME280_pressure;Samples;Min_cycle;Max_cycle;Signal;HPM_P1;HPM_P2
2021/09/04 00:01:22;;;;;;;0.77;0.77;;;;;;;19.18;33.16;97927.88;5000279;28;20566;-73
2021/09/04 00:03:48;;;;;;;0.90;0.80;;;;;;;19.08;33.15;97922.38;5016261;28;20041;-72
2021/09/04 00:06:14;;;;;;;6.82;3.63;;;;;;;19.07;33.53;97933.41;5000391;28;20052;-72
2021/09/04 00:08:42;;;;;;;3.45;2.30;;;;;;;19.10;33.22;97935.59;5016741;28;20462;-72
2021/09/04 00:11:08;;;;;;;3.60;1.33;;;;;;;19.10;33.22;97941.78;5049501;28;20044;-71
2021/09/04 00:13:34;;;;;;;2.00;1.00;;;;;;;19.10;32.99;97939.09;5032991;28;20049;-71
2021/09/04 00:16:00;;;;;;;1.92;0.93;;;;;;;18.90;33.20;97944.25;5037004;28;20639;-71
2021/09/04 00:18:29;;;;;;;0.90;0.90;;;;;;;18.55;33.29;97938.44;5020274;28;20048;-71
2021/09/04 00:20:55;;;;;;;5.05;3.50;;;;;;;18.81;33.20;97936.88;5020457;28;20570;-71
2021/09/04 00:23:20;;;;;;;1.92;1.40;;;;;;;19.06;33.16;97951.44;5003837;28;20045;-71
2021/09/04 00:25:46;;;;;;;0.95;0.90;;;;;;;19.09;32.91;97955.50;5003771;28;20041;-71
2021/09/04 00:28:12;;;;;;;2.42;1.05;;;;;;;19.07;32.70;97949.53;5020299;28;20235;-72
2021/09/04 00:30:38;;;;;;;4.15;1.05;;;;;;;19.03;32.85;97965.41;5020098;28;20051;-71
2021/09/04 00:33:04;;;;;;;1.75;0.80;;;;;;;19.01;32.97;97966.69;5053140;28;20043;-72
2021/09/04 00:35:30;;;;;;;1.70;0.80;;;;;;;18.92;33.17;97963.66;5020433;28;20057;-72
2021/09/04 00:37:56;;;;;;;5.63;1.38;;;;;;;19.11;33.00;97972.22;5019690;28;20090;-71
2021/09/04 00:40:21;;;;;;;0.90;0.90;;;;;;;19.00;32.88;97975.84;5019878;28;20487;-71
2021/09/04 00:42:47;;;;;;;7.45;1.00;;;;;;;18.87;33.16;97963.59;5003380;28;20079;-71
2021/09/04 00:45:13;;;;;;;1.52;1.00;;;;;;;18.91;33.00;97988.13;5020211;28;20412;-71
2021/09/04 00:47:56;;;;;;;1.30;1.08;;;;;;;19.48;32.50;97983.94;5003493;28;20080;-71
2021/09/04 00:50:22;;;;;;;2.72;1.00;;;;;;;19.00;32.91;97968.59;5053097;28;20136;-71
2021/09/04 00:52:48;;;;;;;0.88;0.88;;;;;;;18.92;32.66;97978.97;5003272;28;20044;-72
2021/09/04 00:55:14;;;;;;;3.58;1.05;;;;;;;18.98;32.56;97978.78;5053040;28;20493;-73
2021/09/04 00:57:40;;;;;;;0.80;0.80;;;;;;;18.98;32.57;97986.03;5052606;28;20045;-72
2021/09/04 01:00:06;;;;;;;1.13;0.98;;;;;;;18.99;32.39;97991.16;5019596;28;20562;-73
2021/09/04 01:02:32;;;;;;;3.35;0.90;;;;;;;18.77;32.90;97992.25;5036026;28;20067;-73
2021/09/04 01:04:58;;;;;;;3.00;1.02;;;;;;;18.63;32.80;98001.72;5052379;28;20079;-71
2021/09/04 01:07:24;;;;;;;1.00;0.90;;;;;;;18.65;33.08;97996.94;5019540;28;20041;-73
2021/09/04 01:09:52;;;;;;;3.35;0.95;;;;;;;18.76;33.07;97993.31;5052514;28;20045;-71
2021/09/04 01:12:19;;;;;;;1.60;0.98;;;;;;;18.43;32.86;97981.56;5036157;28;20424;-71
2021/09/04 01:14:45;;;;;;;4.75;1.10;;;;;;;18.67;32.69;97998.28;5036266;28;20045;-71
2021/09/04 01:17:11;;;;;;;1.15;1.10;;;;;;;18.30;33.18;97999.88;5019283;28;20044;-72
2021/09/04 01:19:37;;;;;;;1.35;0.82;;;;;;;18.63;32.63;97997.19;5019045;28;20533;-70
2021/09/04 01:22:03;;;;;;;1.48;0.80;;;;;;;18.68;32.76;98005.31;5035536;28;20497;-71
2021/09/04 01:24:29;;;;;;;1.08;1.02;;;;;;;18.78;32.81;98005.44;5035505;28;20087;-71
2021/09/04 01:26:55;;;;;;;1.48;1.15;;;;;;;18.79;32.67;98017.81;5034407;28;20115;-71
2021/09/04 01:29:21;;;;;;;1.23;1.10;;;;;;;18.82;32.63;97998.47;5002785;28;20040;-71
2021/09/04 01:31:48;;;;;;;4.70;1.17;;;;;;;18.61;32.88;98012.75;5035522;28;20480;-70
2021/09/04 01:34:14;;;;;;;1.20;1.00;;;;;;;18.71;32.88;98004.81;5053378;28;20136;-71
2021/09/04 01:36:40;;;;;;;3.70;1.13;;;;;;;18.70;32.95;98010.44;5002423;28;20041;-71
2021/09/04 01:39:07;;;;;;;1.50;1.40;;;;;;;18.89;32.58;98007.19;5035279;28;20051;-71
2021/09/04 01:41:33;;;;;;;2.70;1.00;;;;;;;18.75;32.70;98003.25;5035245;28;20052;-71
2021/09/04 01:43:59;;;;;;;1.15;1.05;;;;;;;18.78;32.53;98010.00;5018559;28;20456;-71
2021/09/04 01:46:29;;;;;;;1.35;1.10;;;;;;;18.62;33.12;98000.91;5035463;28;20048;-71
2021/09/04 01:48:57;;;;;;;2.85;1.10;;;;;;;18.33;33.20;98002.91;5051649;28;20052;-71
2021/09/04 01:51:24;;;;;;;1.05;1.00;;;;;;;18.56;33.15;98011.88;5018848;28;20069;-71
2021/09/04 01:53:50;;;;;;;1.05;0.95;;;;;;;18.62;33.01;98017.03;5034982;28;20044;-70
2021/09/04 01:56:16;;;;;;;1.30;1.10;;;;;;;18.58;32.75;98021.31;5018769;28;20044;-72
2021/09/04 01:58:41;;;;;;;1.10;0.90;;;;;;;18.48;32.84;98030.03;5018416;28;20048;-70
2021/09/04 02:01:08;;;;;;;1.10;1.00;;;;;;;18.63;32.69;98020.56;5018398;28;20132;-71
2021/09/04 02:03:34;;;;;;;1.13;1.02;;;;;;;18.56;32.97;98028.78;5034906;28;20040;-71
2021/09/04 02:06:01;;;;;;;0.90;0.90;;;;;;;18.61;32.75;98026.19;5018351;28;20079;-71
2021/09/04 02:08:27;;;;;;;1.15;1.05;;;;;;;18.53;32.68;98026.59;5018447;28;20417;-72
2021/09/04 02:10:52;;;;;;;1.05;0.95;;;;;;;18.57;32.57;98022.38;5034559;28;20099;-71
2021/09/04 02:13:18;;;;;;;0.95;0.95;;;;;;;18.33;32.91;98020.91;5002144;28;20444;-72
2021/09/04 02:15:44;;;;;;;1.60;1.10;;;;;;;18.50;32.67;98024.41;5034470;28;20044;-72
2021/09/04 02:18:11;;;;;;;2.10;0.98;;;;;;;18.43;32.46;98018.41;5018130;28;20052;-73
2021/09/04 02:20:37;;;;;;;1.95;1.15;;;;;;;18.35;32.88;98034.91;5001687;28;20044;-73
2021/09/04 02:23:06;;;;;;;1.08;0.90;;;;;;;18.40;32.79;98035.81;5002399;28;20140;-73
2021/09/04 02:25:32;;;;;;;1.38;1.20;;;;;;;18.43;32.78;98035.31;5001593;28;20136;-74
2021/09/04 02:27:58;;;;;;;1.55;0.98;;;;;;;18.15;33.13;98026.53;5001496;28;20057;-72
2021/09/04 02:30:24;;;;;;;2.72;1.05;;;;;;;18.32;32.67;98032.72;5018078;28;20106;-72
2021/09/04 02:32:51;;;;;;;1.13;1.02;;;;;;;18.26;32.88;98041.75;5001911;28;20047;-72
2021/09/04 02:35:18;;;;;;;1.27;1.05;;;;;;;18.42;32.52;98040.94;5018422;28;20068;-73
2021/09/04 02:37:44;;;;;;;1.85;1.00;;;;;;;18.40;32.50;98051.16;5001226;28;20468;-72
2021/09/04 02:40:11;;;;;;;1.90;0.90;;;;;;;18.37;32.57;98041.69;5034670;28;20127;-72
2021/09/04 02:42:37;;;;;;;1.58;1.20;;;;;;;18.41;32.51;98044.72;5001335;28;20114;-73
2021/09/04 02:45:03;;;;;;;2.22;1.10;;;;;;;18.51;32.27;98046.75;5017310;28;20049;-71
2021/09/04 02:47:31;;;;;;;3.33;1.30;;;;;;;18.37;32.32;98057.81;5052014;28;20400;-71
2021/09/04 02:49:58;;;;;;;1.45;1.30;;;;;;;18.36;32.30;98044.59;5033813;28;20037;-71
2021/09/04 02:52:26;;;;;;;1.60;1.40;;;;;;;18.40;32.70;98061.91;5034400;28;20076;-70
2021/09/04 02:54:52;;;;;;;5.75;1.60;;;;;;;18.43;32.49;98056.84;5034010;28;20094;-69
2021/09/04 02:57:18;;;;;;;3.13;1.40;;;;;;;18.34;32.57;98054.78;5017627;28;20040;-71
2021/09/04 02:59:44;;;;;;;2.58;1.38;;;;;;;18.30;32.30;98059.84;5017438;28;20045;-70
2021/09/04 03:02:14;;;;;;;1.92;1.42;;;;;;;18.52;32.28;98064.50;5001770;28;20048;-71
2021/09/04 03:04:40;;;;;;;1.50;1.40;;;;;;;18.29;32.27;98052.03;5050279;28;20049;-71
2021/09/04 03:07:07;;;;;;;2.05;1.20;;;;;;;18.28;32.32;98064.63;5050251;28;20075;-71
2021/09/04 03:09:33;;;;;;;1.55;1.23;;;;;;;17.86;32.87;98063.41;5034070;28;20115;-72
2021/09/04 03:12:02;;;;;;;1.95;1.42;;;;;;;18.26;32.50;98074.84;5033746;28;20512;-72
2021/09/04 03:14:28;;;;;;;3.13;1.52;;;;;;;17.93;32.50;98073.97;5050228;28;20086;-71
2021/09/04 03:16:55;;;;;;;1.98;1.33;;;;;;;18.07;32.73;98077.97;5017569;28;20037;-70
2021/09/04 03:19:21;;;;;;;1.67;1.42;;;;;;;17.72;33.01;98085.44;5051601;28;20049;-72
2021/09/04 03:21:48;;;;;;;1.67;1.40;;;;;;;17.92;32.65;98100.03;5033510;28;20056;-70
2021/09/04 03:24:15;;;;;;;1.50;1.40;;;;;;;18.00;32.58;98088.09;5017469;28;20493;-70
2021/09/04 03:26:41;;;;;;;1.50;1.40;;;;;;;17.88;32.56;98087.34;5016849;28;20057;-70
2021/09/04 03:29:07;;;;;;;1.67;1.58;;;;;;;17.85;32.95;98085.13;5016899;28;20056;-71
2021/09/04 03:31:33;;;;;;;2.03;1.17;;;;;;;17.73;33.02;98093.25;5033483;28;20048;-71
2021/09/04 03:33:59;;;;;;;1.40;1.30;;;;;;;17.75;33.22;98101.88;5000402;28;20037;-71
2021/09/04 03:36:25;;;;;;;1.52;1.40;;;;;;;17.99;32.87;98092.63;5017143;28;20103;-70
2021/09/04 03:38:51;;;;;;;1.40;1.25;;;;;;;17.92;33.34;98099.22;5016938;28;20522;-71
2021/09/04 03:41:18;;;;;;;2.13;1.42;;;;;;;17.90;33.42;98088.72;5016661;28;20071;-70
2021/09/04 03:43:44;;;;;;;2.25;1.38;;;;;;;18.02;33.33;98104.78;5033100;28;20509;-70
2021/09/04 03:46:10;;;;;;;1.45;1.35;;;;;;;18.15;33.12;98104.47;5049746;28;20408;-70
2021/09/04 03:48:36;;;;;;;6.30;1.30;;;;;;;18.14;33.21;98103.63;5032692;28;20044;-70
2021/09/04 03:51:03;;;;;;;1.60;1.50;;;;;;;18.15;33.08;98096.41;5033147;28;20452;-69
2021/09/04 03:53:29;;;;;;;3.53;1.45;;;;;;;18.18;32.99;98102.09;5033275;28;20056;-69
2021/09/04 03:55:56;;;;;;;3.05;1.30;;;;;;;18.40;32.89;98108.41;5033506;28;20155;-70
2021/09/04 03:58:23;;;;;;;5.63;1.60;;;;;;;18.05;33.03;98115.03;5033590;28;20045;-70
2021/09/04 04:00:49;;;;;;;3.10;2.80;;;;;;;18.21;32.86;98120.44;5033101;28;20547;-70
2021/09/04 04:03:15;;;;;;;3.72;1.60;;;;;;;18.31;32.68;98119.78;5032890;28;20171;-71
2021/09/04 04:05:41;;;;;;;1.70;1.58;;;;;;;18.05;33.29;98131.97;5000182;28;20043;-70
2021/09/04 04:08:07;;;;;;;3.67;1.60;;;;;;;18.32;32.94;98124.94;5016518;28;20071;-70
2021/09/04 04:10:34;;;;;;;2.47;1.70;;;;;;;18.37;32.77;98118.81;5000401;28;20045;-70
2021/09/04 04:13:00;;;;;;;2.70;1.48;;;;;;;18.19;32.94;98129.78;5016660;28;20068;-70
2021/09/04 04:15:26;;;;;;;1.83;1.30;;;;;;;18.29;33.24;98135.34;5016738;28;20068;-70
2021/09/04 04:17:53;;;;;;;1.60;1.50;;;;;;;18.40;33.09;98137.16;5049558;28;20040;-71
2021/09/04 04:20:19;;;;;;;2.03;1.63;;;;;;;18.40;33.06;98137.16;5000160;28;20033;-70
2021/09/04 04:22:49;;;;;;;2.28;1.48;;;;;;;18.48;33.13;98142.16;5033301;28;20045;-69
2021/09/04 04:25:16;;;;;;;1.50;1.40;;;;;;;18.26;33.81;98131.28;5016393;28;20048;-70
2021/09/04 04:27:43;;;;;;;3.33;1.55;;;;;;;18.36;33.83;98144.03;5032863;28;20088;-69
2021/09/04 04:30:10;;;;;;;3.33;1.50;;;;;;;17.85;35.01;98138.84;5016807;28;20056;-70
2021/09/04 04:32:36;;;;;;;7.68;2.45;;;;;;;18.16;34.94;98152.59;5016493;28;20040;-70
2021/09/04 04:35:03;;;;;;;3.05;1.30;;;;;;;18.30;34.92;98151.22;5032885;28;20094;-70
2021/09/04 04:37:30;;;;;;;1.50;1.40;;;;;;;18.26;35.68;98147.41;5032702;28;20512;-69
2021/09/04 04:39:56;;;;;;;2.05;1.60;;;;;;;18.19;35.83;98151.28;4999987;28;20047;-70
2021/09/04 04:42:23;;;;;;;1.55;1.40;;;;;;;18.27;35.87;98151.72;5016397;28;20049;-70
2021/09/04 04:44:51;;;;;;;2.55;1.38;;;;;;;18.28;35.72;98155.22;5016826;28;20057;-71
2021/09/04 04:47:17;;;;;;;2.03;1.73;;;;;;;18.38;35.76;98156.22;4999870;28;20080;-70
2021/09/04 04:49:44;;;;;;;2.90;1.48;;;;;;;18.39;35.87;98165.91;5032769;28;20040;-70
2021/09/04 04:52:10;;;;;;;1.60;1.40;;;;;;;18.33;35.49;98168.72;5000111;28;20136;-73
2021/09/04 04:54:35;;;;;;;2.15;1.23;;;;;;;18.32;35.71;98167.94;5016212;28;20136;-72
2021/09/04 04:57:02;;;;;;;2.10;1.58;;;;;;;18.45;35.49;98166.84;5032484;28;20139;-72
2021/09/04 04:59:28;;;;;;;3.15;1.50;;;;;;;18.44;35.41;98179.44;5033096;28;20128;-72
2021/09/04 05:01:54;;;;;;;1.70;1.45;;;;;;;18.69;35.39;98170.97;5001610;28;20044;-69
2021/09/04 05:04:20;;;;;;;2.03;1.30;;;;;;;18.48;35.35;98182.47;5035861;28;20049;-69
2021/09/04 05:06:47;;;;;;;2.42;1.45;;;;;;;18.77;34.63;98180.50;5035998;28;20048;-70
2021/09/04 05:09:14;;;;;;;4.55;1.25;;;;;;;18.93;34.83;98185.88;5036165;28;20102;-70
2021/09/04 05:11:40;;;;;;;2.95;1.10;;;;;;;19.00;34.27;98186.53;5035946;28;20056;-71
2021/09/04 05:14:08;;;;;;;4.63;1.20;;;;;;;19.12;34.09;98189.13;5019768;28;20087;-71
2021/09/04 05:16:34;;;;;;;3.15;1.48;;;;;;;19.05;34.81;98181.19;5019306;28;20077;-71
2021/09/04 05:19:00;;;;;;;2.63;1.50;;;;;;;19.08;34.81;98188.78;5003196;28;20040;-70
2021/09/04 05:21:27;;;;;;;4.25;1.23;;;;;;;19.26;34.29;98196.59;5019746;28;20049;-71
2021/09/04 05:23:53;;;;;;;1.67;1.30;;;;;;;19.25;34.27;98194.94;5035408;28;20420;-70
2021/09/04 05:26:20;;;;;;;2.63;1.20;;;;;;;19.58;33.69;98203.00;5036075;28;20110;-71
2021/09/04 05:28:46;;;;;;;2.10;1.20;;;;;;;19.87;33.88;98190.94;5053408;28;20048;-69
2021/09/04 05:31:12;;;;;;;1.90;1.20;;;;;;;20.13;33.20;98202.00;5002633;28;20127;-70
2021/09/04 05:33:38;;;;;;;1.75;1.25;;;;;;;20.11;33.51;98202.28;5035440;28;20043;-70
2021/09/04 05:36:04;;;;;;;3.40;1.20;;;;;;;20.26;32.97;98212.41;5018972;28;20048;-72
2021/09/04 05:38:30;;;;;;;1.55;1.10;;;;;;;20.24;32.78;98209.16;5019157;28;20037;-69
2021/09/04 05:40:56;;;;;;;3.22;1.13;;;;;;;19.90;33.01;98193.13;5018600;28;20103;-69
2021/09/04 05:43:22;;;;;;;1.30;1.20;;;;;;;20.23;32.76;98223.72;5035341;28;20507;-69
2021/09/04 05:45:48;;;;;;;1.00;0.90;;;;;;;19.90;32.89;98217.38;5052154;28;20434;-69
2021/09/04 05:48:14;;;;;;;2.78;1.10;;;;;;;20.07;32.22;98223.50;5018529;28;20454;-68
2021/09/04 05:50:40;;;;;;;1.52;1.42;;;;;;;20.04;32.34;98225.91;5018747;28;20045;-68
2021/09/04 05:53:05;;;;;;;2.78;0.88;;;;;;;20.45;31.68;98241.47;5018501;28;20049;-68
2021/09/04 05:55:31;;;;;;;1.33;0.93;;;;;;;20.81;31.47;98239.91;5053178;28;20044;-69
2021/09/04 05:57:57;;;;;;;1.98;1.00;;;;;;;21.01;30.94;98234.69;5035349;28;20053;-68
2021/09/04 06:00:23;;;;;;;3.22;1.00;;;;;;;21.21;30.50;98232.97;5027264;28;20041;-76
2021/09/04 06:02:57;;;;;;;2.40;1.00;;;;;;;21.34;30.90;98216.31;5010198;28;20060;-73
2021/09/04 06:05:36;;;;;;;1.10;0.95;;;;;;;21.62;30.18;98231.31;5044175;28;20041;-71
2021/09/04 06:08:02;;;;;;;1.73;0.95;;;;;;;21.69;29.84;98240.81;5050443;28;20052;-78
2021/09/04 06:10:32;;;;;;;2.17;0.93;;;;;;;22.09;29.15;98239.38;5035132;28;20041;-75
2021/09/04 06:12:58;;;;;;;2.58;0.90;;;;;;;21.70;28.59;98233.53;5025577;28;20036;-77
2021/09/04 06:15:24;;;;;;;1.60;0.80;;;;;;;21.96;28.67;98229.88;5028372;28;20029;-76
2021/09/04 06:17:50;;;;;;;1.10;0.88;;;;;;;22.06;28.41;98229.94;5042490;28;20049;-77
2021/09/04 06:20:17;;;;;;;1.40;0.98;;;;;;;22.21;28.13;98223.75;5019606;28;20177;-78
2021/09/04 06:22:43;;;;;;;0.95;0.80;;;;;;;22.42;27.73;98225.44;5026926;28;20490;-77
2021/09/04 06:25:09;;;;;;;6.05;0.90;;;;;;;22.53;27.42;98225.19;5011336;28;20375;-76
2021/09/04 06:27:35;;;;;;;1.52;1.10;;;;;;;22.61;27.16;98221.97;5050235;28;20148;-78
2021/09/04 06:30:03;;;;;;;1.02;0.80;;;;;;;22.71;26.81;98221.97;5027387;28;20040;-77
2021/09/04 06:32:29;;;;;;;2.85;0.90;;;;;;;22.71;26.98;98215.75;5055282;28;20044;-76
2021/09/04 06:34:55;;;;;;;1.30;1.05;;;;;;;22.45;27.27;98220.28;5041362;28;20067;-78
2021/09/04 06:37:21;;;;;;;1.00;0.77;;;;;;;22.08;28.01;98226.97;5021947;28;20041;-78
2021/09/04 06:39:47;;;;;;;1.30;0.68;;;;;;;21.07;31.53;98220.16;5026129;28;20045;-77
2021/09/04 06:42:12;;;;;;;1.13;0.73;;;;;;;20.79;31.68;98217.78;5050355;28;20573;-76
2021/09/04 06:44:38;;;;;;;1.15;0.70;;;;;;;20.44;32.01;98225.53;5031243;28;20041;-77
2021/09/04 06:47:04;;;;;;;1.50;0.60;;;;;;;20.45;32.12;98227.19;5009494;28;20531;-73
2021/09/04 06:49:30;;;;;;;3.72;1.00;;;;;;;20.23;32.81;98229.91;5026582;28;20049;-75
2021/09/04 06:51:56;;;;;;;4.03;0.90;;;;;;;20.51;33.08;98224.25;5030036;28;20040;-75
2021/09/04 06:54:24;;;;;;;3.15;0.88;;;;;;;20.60;32.91;98219.22;5014101;28;20044;-76
2021/09/04 06:56:52;;;;;;;21.80;13.23;;;;;;;21.02;32.66;98214.75;5034686;28;20509;-75
2021/09/04 06:59:20;;;;;;;4.03;2.22;;;;;;;21.23;32.42;98230.81;5032499;28;20045;-76
2021/09/04 07:01:47;;;;;;;3.28;1.42;;;;;;;21.89;32.85;98228.50;4998100;28;20063;-75
2021/09/04 07:04:12;;;;;;;1.83;1.10;;;;;;;22.11;31.53;98243.44;5047271;28;20136;-75
2021/09/04 07:06:38;;;;;;;1.48;1.10;;;;;;;22.14;30.72;98234.78;5016279;28;20145;-75
2021/09/04 07:09:04;;;;;;;2.85;0.98;;;;;;;22.07;29.79;98231.53;5014946;28;20040;-74
2021/09/04 07:11:30;;;;;;;1.08;0.98;;;;;;;21.53;29.23;98241.00;5014971;28;20040;-75
2021/09/04 07:13:56;;;;;;;1.10;1.00;;;;;;;21.05;29.58;98225.03;5015701;28;20570;-75
2021/09/04 07:16:22;;;;;;;0.93;0.88;;;;;;;20.67;29.20;98241.41;5017153;28;20067;-75
2021/09/04 07:18:48;;;;;;;1.70;1.15;;;;;;;20.87;29.87;98255.88;5000724;28;20135;-75
2021/09/04 07:21:14;;;;;;;4.78;3.78;;;;;;;20.88;29.78;98246.72;5033609;28;20052;-75
2021/09/04 07:23:40;;;;;;;2.58;1.98;;;;;;;21.27;29.05;98250.84;5032870;28;20131;-75
2021/09/04 07:26:06;;;;;;;1.77;1.52;;;;;;;21.64;29.30;98253.47;5051337;28;20444;-74
2021/09/04 07:28:32;;;;;;;1.30;1.20;;;;;;;22.04;29.07;98258.28;4981318;28;20116;-75
2021/09/04 07:30:59;;;;;;;2.05;1.40;;;;;;;22.60;28.12;98257.41;4997336;28;20046;-76
2021/09/04 07:33:26;;;;;;;5.35;1.13;;;;;;;24.20;25.39;98256.41;5014068;28;20140;-75
2021/09/04 07:35:52;;;;;;;2.35;1.10;;;;;;;26.27;22.24;98252.44;4997473;28;20528;-76
2021/09/04 07:38:18;;;;;;;2.30;2.08;;;;;;;28.69;19.42;98241.53;4997893;28;20053;-76
2021/09/04 07:40:44;;;;;;;1.50;1.40;;;;;;;31.09;17.05;98249.66;4997572;28;20041;-77
2021/09/04 07:43:11;;;;;;;1.65;0.90;;;;;;;33.36;14.76;98251.06;4997926;28;20049;-76
2021/09/04 07:45:37;;;;;;;1.85;0.98;;;;;;;36.08;12.70;98221.16;5014384;28;20073;-76
2021/09/04 07:48:04;;;;;;;1.67;0.90;;;;;;;38.23;10.37;98246.56;4998060;28;20048;-77
2021/09/04 07:50:30;;;;;;;0.80;0.80;;;;;;;40.29;8.99;98241.13;5015096;28;20072;-77
2021/09/04 07:52:57;;;;;;;1.90;1.40;;;;;;;41.24;8.19;98234.13;5032956;28;20041;-77
2021/09/04 07:55:22;;;;;;;2.10;1.70;;;;;;;42.78;7.18;98246.59;4999303;28;20060;-77
2021/09/04 07:57:52;;;;;;;1.25;1.15;;;;;;;44.13;6.24;98237.09;5013508;28;20041;-76
2021/09/04 08:00:18;;;;;;;1.33;1.10;;;;;;;45.19;5.16;98250.81;5029872;28;20049;-76
2021/09/04 08:02:43;;;;;;;2.72;0.93;;;;;;;45.67;5.19;98248.56;5013326;28;20041;-76
2021/09/04 08:05:11;;;;;;;2.55;1.20;;;;;;;46.32;4.64;98241.53;4997135;28;20038;-76
2021/09/04 08:07:46;;;;;;;1.88;1.10;;;;;;;46.72;4.65;98238.34;5013557;28;20053;-76
2021/09/04 08:10:12;;;;;;;1.08;0.98;;;;;;;45.89;4.77;98230.19;5013306;28;20532;-76
2021/09/04 08:12:38;;;;;;;1.48;1.00;;;;;;;46.48;4.50;98247.22;5013460;28;20128;-76
2021/09/04 08:15:05;;;;;;;1.15;0.80;;;;;;;46.95;4.28;98232.69;4997032;28;20132;-77
2021/09/04 08:17:31;;;;;;;1.15;0.95;;;;;;;45.74;4.36;98234.41;5012908;28;20660;-76
2021/09/04 08:19:56;;;;;;;2.35;0.88;;;;;;;45.21;4.99;98229.53;5013162;28;20136;-76
2021/09/04 08:22:23;;;;;;;0.80;0.80;;;;;;;43.58;5.37;98227.91;5013172;28;20528;-76
2021/09/04 08:24:49;;;;;;;3.33;0.85;;;;;;;40.24;7.24;98220.00;5029641;28;20041;-75
2021/09/04 08:27:15;;;;;;;2.45;1.00;;;;;;;37.02;9.10;98214.25;5022187;28;20393;-75
2021/09/04 08:29:41;;;;;;;1.40;0.88;;;;;;;34.45;11.04;98217.00;4999956;28;20098;-75
2021/09/04 08:32:07;;;;;;;1.83;1.20;;;;;;;32.21;12.83;98210.53;5049715;28;20052;-75
2021/09/04 08:34:35;;;;;;;6.13;1.17;;;;;;;30.81;14.37;98218.22;5033047;28;20040;-75
2021/09/04 08:37:03;;;;;;;2.33;1.50;;;;;;;29.79;15.48;98228.94;5020149;28;20063;-75
2021/09/04 08:39:29;;;;;;;4.55;1.50;;;;;;;29.40;15.22;98224.22;5036251;28;20049;-75
2021/09/04 08:41:55;;;;;;;3.72;1.60;;;;;;;29.76;15.12;98241.31;5052815;28;20060;-75
2021/09/04 08:44:21;;;;;;;1.60;1.17;;;;;;;31.79;13.16;98263.72;5003599;28;20049;-75
2021/09/04 08:46:47;;;;;;;1.42;0.80;;;;;;;34.60;11.32;98241.09;5019878;28;20056;-75
2021/09/04 08:49:14;;;;;;;1.45;0.77;;;;;;;36.23;9.84;98238.91;5019991;28;20509;-75
2021/09/04 08:51:40;;;;;;;0.60;0.60;;;;;;;38.84;7.83;98253.81;5036177;28;20471;-75
2021/09/04 08:54:06;;;;;;;4.00;0.80;;;;;;;41.19;6.67;98251.25;5019978;28;20432;-75
2021/09/04 08:56:32;;;;;;;0.98;0.80;;;;;;;42.94;5.46;98250.53;5019643;28;20051;-76
2021/09/04 08:58:59;;;;;;;2.92;0.90;;;;;;;44.36;5.03;98246.50;5019946;28;20044;-76
2021/09/04 09:01:27;;;;;;;2.08;0.90;;;;;;;45.82;4.34;98261.97;5052602;28;20132;-76
2021/09/04 09:03:55;;;;;;;1.45;0.95;;;;;;;45.03;4.53;98257.00;5052696;28;20136;-76
2021/09/04 09:06:38;;;;;;;2.80;1.02;;;;;;;45.00;4.76;98252.22;5019460;28;20044;-75
2021/09/04 09:09:21;;;;;;;1.40;1.30;;;;;;;42.51;5.64;98248.22;5052509;28;20053;-75
2021/09/04 09:11:49;;;;;;;1.42;1.20;;;;;;;42.23;5.55;98242.63;5003165;28;20114;-75
2021/09/04 09:14:16;;;;;;;0.90;0.80;;;;;;;43.00;4.62;98242.50;5019189;28;20045;-75
2021/09/04 09:16:58;;;;;;;2.33;1.10;;;;;;;43.93;4.42;98242.47;5003071;28;20045;-76
2021/09/04 09:19:30;;;;;;;1.52;1.00;;;;;;;43.74;4.68;98250.53;5035719;28;20558;-75
2021/09/04 09:21:57;;;;;;;1.23;0.50;;;;;;;43.36;4.63;98249.56;5036124;28;20103;-75
2021/09/04 09:24:24;;;;;;;3.05;0.60;;;;;;;41.60;5.68;98247.00;5053802;28;20045;-75
2021/09/04 09:26:56;;;;;;;2.47;0.73;;;;;;;39.58;6.54;98234.09;5035543;28;20168;-75
2021/09/04 09:29:34;;;;;;;9.40;8.50;;;;;;;37.50;8.39;98253.56;5052196;28;20075;-75
2021/09/04 09:32:01;;;;;;;1.55;1.33;;;;;;;34.89;10.76;98253.81;5036258;28;20045;-75
2021/09/04 09:34:27;;;;;;;1.23;1.10;;;;;;;33.33;11.89;98248.97;5019036;28;20053;-74
2021/09/04 09:36:59;;;;;;;2.10;1.10;;;;;;;34.86;11.16;98255.28;5035541;28;20492;-75
2021/09/04 09:39:36;;;;;;;2.25;1.30;;;;;;;37.93;9.42;98265.06;5035361;28;20513;-75
2021/09/04 09:42:03;;;;;;;1.65;0.90;;;;;;;37.26;11.78;98245.59;5052024;28;20048;-75
2021/09/04 09:44:32;;;;;;;5.00;0.90;;;;;;;35.81;13.07;98251.66;5051864;28;20568;-75
2021/09/04 09:47:00;;;;;;;2.72;2.05;;;;;;;32.91;14.46;98244.69;5017907;28;20053;-75
2021/09/04 09:49:26;;;;;;;0.77;0.77;;;;;;;31.29;16.05;98264.63;5018594;28;20099;-75
2021/09/04 09:51:56;;;;;;;1.90;1.10;;;;;;;30.21;17.10;98281.16;5051874;28;20132;-74
2021/09/04 09:54:24;;;;;;;1.23;1.00;;;;;;;28.93;18.72;98294.00;5002282;28;20041;-74
2021/09/04 09:56:50;;;;;;;1.15;0.68;;;;;;;27.82;20.99;98283.75;5002468;28;20049;-75
2021/09/04 09:59:17;;;;;;;0.60;0.60;;;;;;;27.26;22.04;98294.06;5035442;28;20128;-74
2021/09/04 10:01:43;;;;;;;1.27;0.85;;;;;;;26.48;22.98;98282.91;5035041;28;20159;-75
2021/09/04 10:04:10;;;;;;;0.90;0.70;;;;;;;26.41;23.53;98277.03;5051707;28;20048;-75
2021/09/04 10:06:36;;;;;;;1.00;0.90;;;;;;;28.49;23.12;98293.94;5034957;28;20503;-76
2021/09/04 10:09:02;;;;;;;1.23;0.70;;;;;;;31.42;18.90;98297.41;5018280;28;20140;-76
2021/09/04 10:11:28;;;;;;;1.25;0.80;;;;;;;34.34;14.80;98293.03;5034593;28;20044;-75
2021/09/04 10:13:54;;;;;;;0.80;0.80;;;;;;;36.40;12.67;98294.66;5034417;28;20044;-75
2021/09/04 10:16:21;;;;;;;2.60;0.95;;;;;;;38.19;11.47;98298.44;5018092;28;20036;-76
2021/09/04 10:18:47;;;;;;;2.97;1.45;;;;;;;39.51;10.62;98297.97;5018022;28;20061;-75
2021/09/04 10:21:13;;;;;;;5.65;3.90;;;;;;;40.24;9.47;98299.91;5018511;28;20135;-76
2021/09/04 10:23:50;;;;;;;3.42;1.30;;;;;;;41.05;8.90;98294.91;5034422;28;20044;-76
2021/09/04 10:26:38;;;;;;;1.42;1.30;;;;;;;39.51;10.14;98302.72;5052201;28;20040;-76
2021/09/04 10:29:10;;;;;;;2.10;1.20;;;;;;;37.51;10.97;98297.53;5001690;28;20534;-75
2021/09/04 10:32:02;;;;;;;1.48;0.90;;;;;;;35.71;11.99;98299.94;5017947;28;20077;-75
2021/09/04 10:34:39;;;;;;;1.40;0.98;;;;;;;33.81;13.86;98290.44;5001900;28;20135;-75
2021/09/04 10:37:12;;;;;;;3.85;1.40;;;;;;;31.98;15.38;98305.38;5051278;28;20049;-75
2021/09/04 10:39:52;;;;;;;4.72;1.33;;;;;;;32.41;15.28;98303.22;5017710;28;20051;-75
2021/09/04 10:42:32;;;;;;;4.78;1.65;;;;;;;34.01;14.02;98306.13;5034326;28;20051;-75
2021/09/04 10:44:58;;;;;;;;;;;;;;;36.73;11.39;98311.66;5051165;28;20049;-76
2021/09/04 10:47:24;;;;;;;3.28;1.20;;;;;;;37.36;10.87;98301.19;5033839;28;19921;-76
2021/09/04 10:49:56;;;;;;;2.00;1.27;;;;;;;39.09;9.56;98310.53;5017492;28;20056;-76
2021/09/04 10:52:56;;;;;;;2.55;1.20;;;;;;;40.83;8.09;98309.91;5034942;28;20053;-76
2021/09/04 10:55:25;;;;;;;2.15;1.15;;;;;;;41.94;7.46;98294.06;5029214;28;20098;-76
2021/09/04 10:57:53;;;;;;;2.90;0.82;;;;;;;42.89;6.31;98303.22;5034032;28;20103;-76
2021/09/04 11:00:25;;;;;;;1.77;0.70;;;;;;;42.31;6.33;98312.06;5017462;28;20049;-76
2021/09/04 11:03:02;;;;;;;0.82;0.70;;;;;;;40.46;7.10;98301.69;5050637;28;20053;-76
2021/09/04 11:05:34;;;;;;;5.43;0.80;;;;;;;38.19;8.35;98294.84;5033922;28;20072;-75
2021/09/04 11:08:09;;;;;;;1.30;0.70;;;;;;;36.47;10.00;98285.72;5017438;28;20094;-75
2021/09/04 11:10:38;;;;;;;3.30;0.80;;;;;;;35.02;10.85;98294.81;5051001;28;20569;-75
2021/09/04 11:13:25;;;;;;;1.23;0.90;;;;;;;33.46;11.71;98294.72;5035043;28;20094;-75
2021/09/04 11:15:51;;;;;;;0.88;0.75;;;;;;;31.84;13.30;98292.97;5033967;28;20053;-75
2021/09/04 11:18:20;;;;;;;4.00;1.20;;;;;;;31.54;13.80;98296.75;5017248;28;20090;-75
2021/09/04 11:20:50;;;;;;;1.85;1.08;;;;;;;30.81;14.35;98300.47;5000856;28;20045;-75
2021/09/04 11:23:25;;;;;;;5.10;0.75;;;;;;;30.89;14.01;98294.19;5033736;28;20044;-75
2021/09/04 11:25:52;;;;;;;2.50;0.98;;;;;;;31.52;13.53;98297.09;5017186;28;20045;-75
2021/09/04 11:28:30;;;;;;;1.23;0.70;;;;;;;31.04;13.87;98302.72;5049830;28;20056;-75
2021/09/04 11:30:57;;;;;;;3.10;1.50;;;;;;;30.18;14.68;98295.44;5000624;28;20037;-74
2021/09/04 11:33:23;;;;;;;1.35;0.98;;;;;;;29.22;14.98;98302.63;5016796;28;20037;-74
2021/09/04 11:35:49;;;;;;;2.03;1.00;;;;;;;28.55;16.15;98316.47;5033432;28;20041;-74